Time;durP1;ratioP1;P1;durP2;ratioP2;P2;SDS_P1;SDS_P2;PMS_P1;PMS_P2;Temp;Humidity;BMP_temperature;BMP_pressure;BME280_temperature;BME280_humidity;BME280_pressure;Samples;Min_cycle;Max_cycle;Signal;HPM_P1;HPM_P2
2021/12/14 00:00:17;;;;;;;23.4;7.000001;;;;;;;3.97;100;96236.35;;;;
2021/12/14 00:01:22;;;;;;;23.4;7.000001;;;;;;;3.97;100;96236.35;;;;
2021/12/14 00:02:29;;;;;;;23.4;7.000001;;;;;;;3.97;100;96236.35;;;;
2021/12/14 00:03:31;;;;;;;23.4;7.000001;;;;;;;3.97;100;96236.35;;;;
2021/12/14 00:04:33;;;;;;;23.4;7.000001;;;;;;;3.97;100;96236.35;;;;
2021/12/14 00:05:36;;;;;;;23.4;7.000001;;;;;;;3.97;100;96236.35;;;;
2021/12/14 00:06:38;;;;;;;11.8;5.750001;;;;;;;3.64;100;96231.67;;;;
2021/12/14 00:07:41;;;;;;;11.8;5.750001;;;;;;;3.64;100;96231.67;;;;
2021/12/14 00:08:49;;;;;;;11.8;5.750001;;;;;;;3.64;100;96231.67;;;;
2021/12/14 00:10:00;;;;;;;11.8;5.750001;;;;;;;3.64;100;96231.67;;;;
2021/12/14 00:11:25;;;;;;;11.8;5.750001;;;;;;;3.64;100;96231.67;;;;
2021/12/14 00:12:38;;;;;;;11.8;5.750001;;;;;;;3.64;100;96231.67;;;;
2021/12/14 00:13:56;;;;;;;11.8;5.750001;;;;;;;3.64;100;96231.67;;;;
2021/12/14 00:15:04;;;;;;;11.8;5.750001;;;;;;;3.64;100;96231.67;;;;
2021/12/14 00:16:12;;;;;;;11.8;5.750001;;;;;;;3.64;100;96231.67;;;;
2021/12/14 00:17:13;;;;;;;11.6;5.4;;;;;;;3.39;100;96220.62;;;;
2021/12/14 00:18:18;;;;;;;11.6;5.4;;;;;;;3.39;100;96220.62;;;;
2021/12/14 00:19:19;;;;;;;11.6;5.4;;;;;;;3.39;100;96220.62;;;;
2021/12/14 00:20:20;;;;;;;11.6;5.4;;;;;;;3.39;100;96220.62;;;;
2021/12/14 00:21:30;;;;;;;11.6;5.4;;;;;;;3.39;100;96220.62;;;;
2021/12/14 00:22:37;;;;;;;11.6;5.4;;;;;;;3.39;100;96220.62;;;;
2021/12/14 00:24:11;;;;;;;11.6;5.4;;;;;;;3.39;100;96220.62;;;;
2021/12/14 00:25:12;;;;;;;11.6;5.4;;;;;;;3.39;100;96220.62;;;;
2021/12/14 00:26:12;;;;;;;11.6;5.4;;;;;;;3.39;100;96220.62;;;;
2021/12/14 00:27:14;;;;;;;11.6;5.4;;;;;;;3.39;100;96220.62;;;;
2021/12/14 00:28:16;;;;;;;62.45;6.25;;;;;;;3.22;100;96221.62;;;;
2021/12/14 00:29:20;;;;;;;62.45;6.25;;;;;;;3.22;100;96221.62;;;;
2021/12/14 00:30:23;;;;;;;62.45;6.25;;;;;;;3.22;100;96221.62;;;;
2021/12/14 00:31:25;;;;;;;62.45;6.25;;;;;;;3.22;100;96221.62;;;;
2021/12/14 00:32:26;;;;;;;62.45;6.25;;;;;;;3.22;100;96221.62;;;;
2021/12/14 00:33:31;;;;;;;62.45;6.25;;;;;;;3.22;100;96221.62;;;;
2021/12/14 00:34:37;;;;;;;62.45;6.25;;;;;;;3.22;100;96221.62;;;;
2021/12/14 00:35:38;;;;;;;62.45;6.25;;;;;;;3.22;100;96221.62;;;;
2021/12/14 00:36:39;;;;;;;62.45;6.25;;;;;;;3.22;100;96221.62;;;;
2021/12/14 00:37:40;;;;;;;62.45;6.25;;;;;;;3.22;100;96221.62;;;;
2021/12/14 00:38:43;;;;;;;20.05;4.649999;;;;;;;3.05;100;96232.9;;;;
2021/12/14 00:39:45;;;;;;;20.05;4.649999;;;;;;;3.05;100;96232.9;;;;
2021/12/14 00:40:48;;;;;;;20.05;4.649999;;;;;;;3.05;100;96232.9;;;;
2021/12/14 00:41:52;;;;;;;20.05;4.649999;;;;;;;3.05;100;96232.9;;;;
2021/12/14 00:42:53;;;;;;;20.05;4.649999;;;;;;;3.05;100;96232.9;;;;
2021/12/14 00:43:55;;;;;;;20.05;4.649999;;;;;;;3.05;100;96232.9;;;;
2021/12/14 00:44:56;;;;;;;20.05;4.649999;;;;;;;3.05;100;96232.9;;;;
2021/12/14 00:45:57;;;;;;;20.05;4.649999;;;;;;;3.05;100;96232.9;;;;
2021/12/14 00:46:58;;;;;;;20.05;4.649999;;;;;;;3.05;100;96232.9;;;;
2021/12/14 00:47:58;;;;;;;20.05;4.649999;;;;;;;3.05;100;96232.9;;;;
2021/12/14 00:49:00;;;;;;;20.05;4.649999;;;;;;;3.05;100;96232.9;;;;
2021/12/14 00:50:00;;;;;;;20.6;4.4;;;;;;;2.92;100;96243.23;;;;
2021/12/14 00:51:02;;;;;;;20.6;4.4;;;;;;;2.92;100;96243.23;;;;
2021/12/14 00:52:04;;;;;;;20.6;4.4;;;;;;;2.92;100;96243.23;;;;
2021/12/14 00:53:07;;;;;;;20.6;4.4;;;;;;;2.92;100;96243.23;;;;
2021/12/14 00:54:10;;;;;;;20.6;4.4;;;;;;;2.92;100;96243.23;;;;
2021/12/14 00:55:13;;;;;;;20.6;4.4;;;;;;;2.92;100;96243.23;;;;
2021/12/14 00:56:19;;;;;;;20.6;4.4;;;;;;;2.92;100;96243.23;;;;
2021/12/14 00:57:20;;;;;;;20.6;4.4;;;;;;;2.92;100;96243.23;;;;
2021/12/14 00:58:21;;;;;;;20.6;4.4;;;;;;;2.92;100;96243.23;;;;
2021/12/14 00:59:22;;;;;;;20.6;4.4;;;;;;;2.92;100;96243.23;;;;
2021/12/14 01:00:23;;;;;;;20.6;4.4;;;;;;;2.92;100;96243.23;;;;
2021/12/14 01:01:27;;;;;;;20.6;4.4;;;;;;;2.92;100;96243.23;;;;
2021/12/14 01:02:32;;;;;;;20.6;4.4;;;;;;;2.92;100;96243.23;;;;
2021/12/14 01:03:33;;;;;;;20.6;4.4;;;;;;;2.92;100;96243.23;;;;
2021/12/14 01:04:38;;;;;;;20.6;4.4;;;;;;;2.92;100;96243.23;;;;
2021/12/14 01:05:42;;;;;;;20.6;4.4;;;;;;;2.92;100;96243.23;;;;
2021/12/14 01:06:46;;;;;;;20.6;4.4;;;;;;;2.92;100;96243.23;;;;
2021/12/14 01:07:47;;;;;;;20.6;4.4;;;;;;;2.92;100;96243.23;;;;
2021/12/14 01:08:49;;;;;;;20.6;4.4;;;;;;;2.92;100;96243.23;;;;
2021/12/14 01:09:51;;;;;;;20.6;4.4;;;;;;;2.92;100;96243.23;;;;
2021/12/14 01:10:55;;;;;;;20.6;4.4;;;;;;;2.92;100;96243.23;;;;
2021/12/14 01:12:06;;;;;;;6.299999;3;;;;;;;2.67;100;96219.7;;;;
2021/12/14 01:13:10;;;;;;;6.299999;3;;;;;;;2.67;100;96219.7;;;;
2021/12/14 01:14:12;;;;;;;6.299999;3;;;;;;;2.67;100;96219.7;;;;
2021/12/14 01:15:26;;;;;;;6.299999;3;;;;;;;2.67;100;96219.7;;;;
2021/12/14 01:16:35;;;;;;;6.299999;3;;;;;;;2.67;100;96219.7;;;;
2021/12/14 01:17:41;;;;;;;6.299999;3;;;;;;;2.67;100;96219.7;;;;
2021/12/14 01:18:47;;;;;;;6.299999;3;;;;;;;2.67;100;96219.7;;;;
2021/12/14 01:19:55;;;;;;;6.299999;3;;;;;;;2.67;100;96219.7;;;;
2021/12/14 01:21:02;;;;;;;6.299999;3;;;;;;;2.67;100;96219.7;;;;
2021/12/14 01:22:37;;;;;;;6.299999;3;;;;;;;2.67;100;96219.7;;;;
2021/12/14 01:23:38;;;;;;;12.2;3.15;;;;;;;2.59;100;96220.62;;;;
2021/12/14 01:25:00;;;;;;;12.2;3.15;;;;;;;2.59;100;96220.62;;;;
2021/12/14 01:26:10;;;;;;;12.2;3.15;;;;;;;2.59;100;96220.62;;;;
2021/12/14 01:27:15;;;;;;;12.2;3.15;;;;;;;2.59;100;96220.62;;;;
2021/12/14 01:28:19;;;;;;;12.2;3.15;;;;;;;2.59;100;96220.62;;;;
2021/12/14 01:29:23;;;;;;;12.2;3.15;;;;;;;2.59;100;96220.62;;;;
2021/12/14 01:30:24;;;;;;;12.2;3.15;;;;;;;2.59;100;96220.62;;;;
2021/12/14 01:31:36;;;;;;;12.2;3.15;;;;;;;2.59;100;96220.62;;;;
2021/12/14 01:32:41;;;;;;;12.2;3.15;;;;;;;2.59;100;96220.62;;;;
2021/12/14 01:33:45;;;;;;;5.05;2.55;;;;;;;2.4;100;96237.73;;;;
2021/12/14 01:34:49;;;;;;;5.05;2.55;;;;;;;2.4;100;96237.73;;;;
2021/12/14 01:35:52;;;;;;;5.05;2.55;;;;;;;2.4;100;96237.73;;;;
2021/12/14 01:36:57;;;;;;;5.05;2.55;;;;;;;2.4;100;96237.73;;;;
2021/12/14 01:38:01;;;;;;;5.05;2.55;;;;;;;2.4;100;96237.73;;;;
2021/12/14 01:39:21;;;;;;;5.05;2.55;;;;;;;2.4;100;96237.73;;;;
2021/12/14 01:40:46;;;;;;;5.05;2.55;;;;;;;2.4;100;96237.73;;;;
2021/12/14 01:41:50;;;;;;;5.05;2.55;;;;;;;2.4;100;96237.73;;;;
2021/12/14 01:42:55;;;;;;;5.05;2.55;;;;;;;2.4;100;96237.73;;;;
2021/12/14 01:43:57;;;;;;;5.05;2.55;;;;;;;2.4;100;96237.73;;;;
2021/12/14 01:44:58;;;;;;;4.599999;2.75;;;;;;;2.25;100;96261.56;;;;
2021/12/14 01:46:03;;;;;;;4.599999;2.75;;;;;;;2.25;100;96261.56;;;;
2021/12/14 01:47:06;;;;;;;4.599999;2.75;;;;;;;2.25;100;96261.56;;;;
2021/12/14 01:48:11;;;;;;;4.599999;2.75;;;;;;;2.25;100;96261.56;;;;
2021/12/14 01:49:12;;;;;;;4.599999;2.75;;;;;;;2.25;100;96261.56;;;;
2021/12/14 01:50:15;;;;;;;4.599999;2.75;;;;;;;2.25;100;96261.56;;;;
2021/12/14 01:51:27;;;;;;;4.599999;2.75;;;;;;;2.25;100;96261.56;;;;
2021/12/14 01:52:28;;;;;;;4.599999;2.75;;;;;;;2.25;100;96261.56;;;;
2021/12/14 01:53:31;;;;;;;4.599999;2.75;;;;;;;2.25;100;96261.56;;;;
2021/12/14 01:54:33;;;;;;;4.599999;2.75;;;;;;;2.25;100;96261.56;;;;
2021/12/14 01:55:39;;;;;;;6.55;2.4;;;;;;;2.18;100;96258.29;;;;
2021/12/14 01:56:43;;;;;;;6.55;2.4;;;;;;;2.18;100;96258.29;;;;
2021/12/14 01:57:44;;;;;;;6.55;2.4;;;;;;;2.18;100;96258.29;;;;
2021/12/14 01:58:45;;;;;;;6.55;2.4;;;;;;;2.18;100;96258.29;;;;
2021/12/14 01:59:54;;;;;;;6.55;2.4;;;;;;;2.18;100;96258.29;;;;
2021/12/14 02:00:56;;;;;;;6.55;2.4;;;;;;;2.18;100;96258.29;;;;
2021/12/14 02:02:09;;;;;;;6.55;2.4;;;;;;;2.18;100;96258.29;;;;
2021/12/14 02:03:14;;;;;;;6.55;2.4;;;;;;;2.18;100;96258.29;;;;
2021/12/14 02:04:16;;;;;;;6.55;2.4;;;;;;;2.18;100;96258.29;;;;
2021/12/14 02:05:20;;;;;;;6.55;2.4;;;;;;;2.18;100;96258.29;;;;
2021/12/14 02:06:26;;;;;;;6.55;2.4;;;;;;;2.18;100;96258.29;;;;
2021/12/14 02:07:32;;;;;;;10.25;2.65;;;;;;;2.06;100;96249.84;;;;
2021/12/14 02:08:33;;;;;;;10.25;2.65;;;;;;;2.06;100;96249.84;;;;
2021/12/14 02:09:36;;;;;;;10.25;2.65;;;;;;;2.06;100;96249.84;;;;
2021/12/14 02:10:38;;;;;;;10.25;2.65;;;;;;;2.06;100;96249.84;;;;
2021/12/14 02:11:39;;;;;;;10.25;2.65;;;;;;;2.06;100;96249.84;;;;
2021/12/14 02:12:49;;;;;;;10.25;2.65;;;;;;;2.06;100;96249.84;;;;
2021/12/14 02:13:51;;;;;;;10.25;2.65;;;;;;;2.06;100;96249.84;;;;
2021/12/14 02:14:54;;;;;;;10.25;2.65;;;;;;;2.06;100;96249.84;;;;
2021/12/14 02:16:05;;;;;;;10.25;2.65;;;;;;;2.06;100;96249.84;;;;
2021/12/14 02:17:07;;;;;;;10.25;2.65;;;;;;;2.06;100;96249.84;;;;
2021/12/14 02:18:12;;;;;;;9.750001;3.35;;;;;;;1.98;100;96261.78;;;;
2021/12/14 02:19:16;;;;;;;9.750001;3.35;;;;;;;1.98;100;96261.78;;;;
2021/12/14 02:20:17;;;;;;;9.750001;3.35;;;;;;;1.98;100;96261.78;;;;
2021/12/14 02:21:21;;;;;;;9.750001;3.35;;;;;;;1.98;100;96261.78;;;;
2021/12/14 02:22:22;;;;;;;9.750001;3.35;;;;;;;1.98;100;96261.78;;;;
2021/12/14 02:23:25;;;;;;;9.750001;3.35;;;;;;;1.98;100;96261.78;;;;
2021/12/14 02:24:28;;;;;;;9.750001;3.35;;;;;;;1.98;100;96261.78;;;;
2021/12/14 02:25:30;;;;;;;9.750001;3.35;;;;;;;1.98;100;96261.78;;;;
2021/12/14 02:26:30;;;;;;;9.750001;3.35;;;;;;;1.98;100;96261.78;;;;
2021/12/14 02:27:34;;;;;;;9.750001;3.35;;;;;;;1.98;100;96261.78;;;;
2021/12/14 02:28:36;;;;;;;9.9;3.55;;;;;;;1.97;100;96248.99;;;;
2021/12/14 02:29:37;;;;;;;9.9;3.55;;;;;;;1.97;100;96248.99;;;;
2021/12/14 02:30:41;;;;;;;9.9;3.55;;;;;;;1.97;100;96248.99;;;;
2021/12/14 02:31:43;;;;;;;9.9;3.55;;;;;;;1.97;100;96248.99;;;;
2021/12/14 02:32:45;;;;;;;9.9;3.55;;;;;;;1.97;100;96248.99;;;;
2021/12/14 02:33:46;;;;;;;9.9;3.55;;;;;;;1.97;100;96248.99;;;;
2021/12/14 02:34:50;;;;;;;9.9;3.55;;;;;;;1.97;100;96248.99;;;;
2021/12/14 02:35:56;;;;;;;9.9;3.55;;;;;;;1.97;100;96248.99;;;;
2021/12/14 02:36:58;;;;;;;9.9;3.55;;;;;;;1.97;100;96248.99;;;;
2021/12/14 02:37:58;;;;;;;9.9;3.55;;;;;;;1.97;100;96248.99;;;;
2021/12/14 02:39:07;;;;;;;9.9;3.55;;;;;;;1.97;100;96248.99;;;;
2021/12/14 02:40:17;;;;;;;11.1;3.6;;;;;;;1.97;100;96238.83;;;;
2021/12/14 02:41:21;;;;;;;11.1;3.6;;;;;;;1.97;100;96238.83;;;;
2021/12/14 02:42:22;;;;;;;11.1;3.6;;;;;;;1.97;100;96238.83;;;;
2021/12/14 02:43:26;;;;;;;11.1;3.6;;;;;;;1.97;100;96238.83;;;;
2021/12/14 02:44:33;;;;;;;11.1;3.6;;;;;;;1.97;100;96238.83;;;;
2021/12/14 02:45:34;;;;;;;11.1;3.6;;;;;;;1.97;100;96238.83;;;;
2021/12/14 02:46:35;;;;;;;11.1;3.6;;;;;;;1.97;100;96238.83;;;;
2021/12/14 02:47:39;;;;;;;11.1;3.6;;;;;;;1.97;100;96238.83;;;;
2021/12/14 02:48:39;;;;;;;11.1;3.6;;;;;;;1.97;100;96238.83;;;;
2021/12/14 02:49:48;;;;;;;11.1;3.6;;;;;;;1.97;100;96238.83;;;;
2021/12/14 02:50:49;;;;;;;40.9;4.8;;;;;;;2.05;100;96229.55;;;;
2021/12/14 02:51:50;;;;;;;40.9;4.8;;;;;;;2.05;100;96229.55;;;;
2021/12/14 02:52:54;;;;;;;40.9;4.8;;;;;;;2.05;100;96229.55;;;;
2021/12/14 02:53:55;;;;;;;40.9;4.8;;;;;;;2.05;100;96229.55;;;;
2021/12/14 02:55:00;;;;;;;40.9;4.8;;;;;;;2.05;100;96229.55;;;;
2021/12/14 02:56:07;;;;;;;40.9;4.8;;;;;;;2.05;100;96229.55;;;;
2021/12/14 02:57:12;;;;;;;40.9;4.8;;;;;;;2.05;100;96229.55;;;;
2021/12/14 02:58:16;;;;;;;40.9;4.8;;;;;;;2.05;100;96229.55;;;;
2021/12/14 02:59:16;;;;;;;40.9;4.8;;;;;;;2.05;100;96229.55;;;;
2021/12/14 03:00:22;;;;;;;40.9;4.8;;;;;;;2.05;100;96229.55;;;;
2021/12/14 03:01:28;;;;;;;30.7;3.85;;;;;;;2.11;100;96223.99;;;;
2021/12/14 03:02:29;;;;;;;30.7;3.85;;;;;;;2.11;100;96223.99;;;;
2021/12/14 03:03:33;;;;;;;30.7;3.85;;;;;;;2.11;100;96223.99;;;;
2021/12/14 03:04:34;;;;;;;30.7;3.85;;;;;;;2.11;100;96223.99;;;;
2021/12/14 03:05:40;;;;;;;30.7;3.85;;;;;;;2.11;100;96223.99;;;;
2021/12/14 03:06:47;;;;;;;30.7;3.85;;;;;;;2.11;100;96223.99;;;;
2021/12/14 03:07:52;;;;;;;30.7;3.85;;;;;;;2.11;100;96223.99;;;;
2021/12/14 03:09:08;;;;;;;30.7;3.85;;;;;;;2.11;100;96223.99;;;;
2021/12/14 03:10:20;;;;;;;30.7;3.85;;;;;;;2.11;100;96223.99;;;;
2021/12/14 03:11:26;;;;;;;30.7;3.85;;;;;;;2.11;100;96223.99;;;;
2021/12/14 03:12:26;;;;;;;62.10001;4.200001;;;;;;;2.16;100;96220.84;;;;
2021/12/14 03:13:32;;;;;;;62.10001;4.200001;;;;;;;2.16;100;96220.84;;;;
2021/12/14 03:14:33;;;;;;;62.10001;4.200001;;;;;;;2.16;100;96220.84;;;;
2021/12/14 03:15:34;;;;;;;62.10001;4.200001;;;;;;;2.16;100;96220.84;;;;
2021/12/14 03:16:38;;;;;;;62.10001;4.200001;;;;;;;2.16;100;96220.84;;;;
2021/12/14 03:17:40;;;;;;;62.10001;4.200001;;;;;;;2.16;100;96220.84;;;;
2021/12/14 03:18:42;;;;;;;62.10001;4.200001;;;;;;;2.16;100;96220.84;;;;
2021/12/14 03:19:46;;;;;;;62.10001;4.200001;;;;;;;2.16;100;96220.84;;;;
2021/12/14 03:20:52;;;;;;;62.10001;4.200001;;;;;;;2.16;100;96220.84;;;;
2021/12/14 03:21:57;;;;;;;62.10001;4.200001;;;;;;;2.16;100;96220.84;;;;
2021/12/14 03:22:58;;;;;;;62.10001;4.200001;;;;;;;2.16;100;96220.84;;;;
2021/12/14 03:24:02;;;;;;;28.6;3.4;;;;;;;2.17;100;96230.08;;;;
2021/12/14 03:25:06;;;;;;;28.6;3.4;;;;;;;2.17;100;96230.08;;;;
2021/12/14 03:26:08;;;;;;;28.6;3.4;;;;;;;2.17;100;96230.08;;;;
2021/12/14 03:27:11;;;;;;;28.6;3.4;;;;;;;2.17;100;96230.08;;;;
2021/12/14 03:28:12;;;;;;;28.6;3.4;;;;;;;2.17;100;96230.08;;;;
2021/12/14 03:29:16;;;;;;;28.6;3.4;;;;;;;2.17;100;96230.08;;;;
2021/12/14 03:30:21;;;;;;;28.6;3.4;;;;;;;2.17;100;96230.08;;;;
2021/12/14 03:31:29;;;;;;;28.6;3.4;;;;;;;2.17;100;96230.08;;;;
2021/12/14 03:32:34;;;;;;;28.6;3.4;;;;;;;2.17;100;96230.08;;;;
2021/12/14 03:33:34;;;;;;;28.6;3.4;;;;;;;2.17;100;96230.08;;;;
2021/12/14 03:34:44;;;;;;;39.6;4;;;;;;;2.07;100;96229.71;;;;
2021/12/14 03:35:45;;;;;;;39.6;4;;;;;;;2.07;100;96229.71;;;;
2021/12/14 03:36:49;;;;;;;39.6;4;;;;;;;2.07;100;96229.71;;;;
2021/12/14 03:37:52;;;;;;;39.6;4;;;;;;;2.07;100;96229.71;;;;
2021/12/14 03:39:05;;;;;;;39.6;4;;;;;;;2.07;100;96229.71;;;;
2021/12/14 03:40:10;;;;;;;39.6;4;;;;;;;2.07;100;96229.71;;;;
2021/12/14 03:41:12;;;;;;;39.6;4;;;;;;;2.07;100;96229.71;;;;
2021/12/14 03:42:16;;;;;;;39.6;4;;;;;;;2.07;100;96229.71;;;;
2021/12/14 03:43:20;;;;;;;39.6;4;;;;;;;2.07;100;96229.71;;;;
2021/12/14 03:44:21;;;;;;;39.6;4;;;;;;;2.07;100;96229.71;;;;
2021/12/14 03:45:25;;;;;;;25.5;2.8;;;;;;;1.97;100;96224.17;;;;
2021/12/14 03:46:26;;;;;;;25.5;2.8;;;;;;;1.97;100;96224.17;;;;
2021/12/14 03:47:28;;;;;;;25.5;2.8;;;;;;;1.97;100;96224.17;;;;
2021/12/14 03:48:33;;;;;;;25.5;2.8;;;;;;;1.97;100;96224.17;;;;
2021/12/14 03:49:34;;;;;;;25.5;2.8;;;;;;;1.97;100;96224.17;;;;
2021/12/14 03:50:41;;;;;;;25.5;2.8;;;;;;;1.97;100;96224.17;;;;
2021/12/14 03:51:42;;;;;;;25.5;2.8;;;;;;;1.97;100;96224.17;;;;
2021/12/14 03:52:43;;;;;;;25.5;2.8;;;;;;;1.97;100;96224.17;;;;
2021/12/14 03:53:44;;;;;;;25.5;2.8;;;;;;;1.97;100;96224.17;;;;
2021/12/14 03:54:45;;;;;;;25.5;2.8;;;;;;;1.97;100;96224.17;;;;
2021/12/14 03:55:45;;;;;;;25.5;2.8;;;;;;;1.97;100;96224.17;;;;
2021/12/14 03:56:50;;;;;;;17.3;2.75;;;;;;;1.9;100;96229.39;;;;
2021/12/14 03:57:52;;;;;;;17.3;2.75;;;;;;;1.9;100;96229.39;;;;
2021/12/14 03:58:53;;;;;;;17.3;2.75;;;;;;;1.9;100;96229.39;;;;
2021/12/14 03:59:54;;;;;;;17.3;2.75;;;;;;;1.9;100;96229.39;;;;
2021/12/14 04:00:56;;;;;;;17.3;2.75;;;;;;;1.9;100;96229.39;;;;
2021/12/14 04:02:01;;;;;;;17.3;2.75;;;;;;;1.9;100;96229.39;;;;
2021/12/14 04:03:08;;;;;;;17.3;2.75;;;;;;;1.9;100;96229.39;;;;
2021/12/14 04:04:14;;;;;;;17.3;2.75;;;;;;;1.9;100;96229.39;;;;
2021/12/14 04:05:18;;;;;;;17.3;2.75;;;;;;;1.9;100;96229.39;;;;
2021/12/14 04:06:19;;;;;;;17.3;2.75;;;;;;;1.9;100;96229.39;;;;
2021/12/14 04:07:20;;;;;;;15.05;2.7;;;;;;;1.85;100;96233.45;;;;
2021/12/14 04:08:21;;;;;;;15.05;2.7;;;;;;;1.85;100;96233.45;;;;
2021/12/14 04:09:23;;;;;;;15.05;2.7;;;;;;;1.85;100;96233.45;;;;
2021/12/14 04:10:29;;;;;;;15.05;2.7;;;;;;;1.85;100;96233.45;;;;
2021/12/14 04:11:32;;;;;;;15.05;2.7;;;;;;;1.85;100;96233.45;;;;
2021/12/14 04:12:33;;;;;;;15.05;2.7;;;;;;;1.85;100;96233.45;;;;
2021/12/14 04:13:35;;;;;;;15.05;2.7;;;;;;;1.85;100;96233.45;;;;
2021/12/14 04:14:38;;;;;;;15.05;2.7;;;;;;;1.85;100;96233.45;;;;
2021/12/14 04:15:41;;;;;;;15.05;2.7;;;;;;;1.85;100;96233.45;;;;
2021/12/14 04:16:42;;;;;;;15.05;2.7;;;;;;;1.85;100;96233.45;;;;
2021/12/14 04:17:46;;;;;;;15.05;2.7;;;;;;;1.85;100;96233.45;;;;
2021/12/14 04:18:47;;;;;;;12.65;3;;;;;;;1.82;100;96226.61;;;;
2021/12/14 04:19:48;;;;;;;12.65;3;;;;;;;1.82;100;96226.61;;;;
2021/12/14 04:20:52;;;;;;;12.65;3;;;;;;;1.82;100;96226.61;;;;
2021/12/14 04:21:54;;;;;;;12.65;3;;;;;;;1.82;100;96226.61;;;;
2021/12/14 04:22:59;;;;;;;12.65;3;;;;;;;1.82;100;96226.61;;;;
2021/12/14 04:24:02;;;;;;;12.65;3;;;;;;;1.82;100;96226.61;;;;
2021/12/14 04:25:04;;;;;;;12.65;3;;;;;;;1.82;100;96226.61;;;;
2021/12/14 04:26:09;;;;;;;12.65;3;;;;;;;1.82;100;96226.61;;;;
2021/12/14 04:27:12;;;;;;;12.65;3;;;;;;;1.82;100;96226.61;;;;
2021/12/14 04:28:17;;;;;;;12.65;3;;;;;;;1.82;100;96226.61;;;;
2021/12/14 04:29:23;;;;;;;46.49999;3.25;;;;;;;1.79;100;96224.77;;;;
2021/12/14 04:30:24;;;;;;;46.49999;3.25;;;;;;;1.79;100;96224.77;;;;
2021/12/14 04:31:27;;;;;;;46.49999;3.25;;;;;;;1.79;100;96224.77;;;;
2021/12/14 04:32:33;;;;;;;46.49999;3.25;;;;;;;1.79;100;96224.77;;;;
2021/12/14 04:33:33;;;;;;;46.49999;3.25;;;;;;;1.79;100;96224.77;;;;
2021/12/14 04:34:40;;;;;;;46.49999;3.25;;;;;;;1.79;100;96224.77;;;;
2021/12/14 04:35:41;;;;;;;46.49999;3.25;;;;;;;1.79;100;96224.77;;;;
2021/12/14 04:36:44;;;;;;;46.49999;3.25;;;;;;;1.79;100;96224.77;;;;
2021/12/14 04:37:47;;;;;;;46.49999;3.25;;;;;;;1.79;100;96224.77;;;;
2021/12/14 04:38:53;;;;;;;46.49999;3.25;;;;;;;1.79;100;96224.77;;;;
2021/12/14 04:40:09;;;;;;;46.49999;3.25;;;;;;;1.79;100;96224.77;;;;
2021/12/14 04:51:58;;;;;;;18.4;3.299999;;;;;;;1.71;100;96194.94;;;;
2021/12/14 04:52:59;;;;;;;18.4;3.299999;;;;;;;1.71;100;96194.94;;;;
2021/12/14 04:54:25;;;;;;;18.4;3.299999;;;;;;;1.71;100;96194.94;;;;
2021/12/14 04:55:28;;;;;;;18.4;3.299999;;;;;;;1.71;100;96194.94;;;;
2021/12/14 04:56:29;;;;;;;18.4;3.299999;;;;;;;1.71;100;96194.94;;;;
2021/12/14 04:57:34;;;;;;;18.4;3.299999;;;;;;;1.71;100;96194.94;;;;
2021/12/14 04:58:37;;;;;;;18.4;3.299999;;;;;;;1.71;100;96194.94;;;;
2021/12/14 04:59:41;;;;;;;18.4;3.299999;;;;;;;1.71;100;96194.94;;;;
2021/12/14 05:00:42;;;;;;;18.4;3.299999;;;;;;;1.71;100;96194.94;;;;
2021/12/14 05:01:46;;;;;;;18.4;3.299999;;;;;;;1.71;100;96194.94;;;;
2021/12/14 05:02:49;;;;;;;37.3;3.3;;;;;;;1.59;100;96190.48;;;;
2021/12/14 05:03:51;;;;;;;37.3;3.3;;;;;;;1.59;100;96190.48;;;;
2021/12/14 05:04:56;;;;;;;37.3;3.3;;;;;;;1.59;100;96190.48;;;;
2021/12/14 05:06:09;;;;;;;37.3;3.3;;;;;;;1.59;100;96190.48;;;;
2021/12/14 05:07:32;;;;;;;37.3;3.3;;;;;;;1.59;100;96190.48;;;;
2021/12/14 05:09:37;;;;;;;37.3;3.3;;;;;;;1.59;100;96190.48;;;;
2021/12/14 05:10:38;;;;;;;37.3;3.3;;;;;;;1.59;100;96190.48;;;;
2021/12/14 05:11:42;;;;;;;37.3;3.3;;;;;;;1.59;100;96190.48;;;;
2021/12/14 05:12:43;;;;;;;37.3;3.3;;;;;;;1.59;100;96190.48;;;;
2021/12/14 05:13:44;;;;;;;5.15;2.2;;;;;;;1.45;100;96198.56;;;;
2021/12/14 05:14:47;;;;;;;5.15;2.2;;;;;;;1.45;100;96198.56;;;;
2021/12/14 05:15:49;;;;;;;5.15;2.2;;;;;;;1.45;100;96198.56;;;;
2021/12/14 05:16:49;;;;;;;5.15;2.2;;;;;;;1.45;100;96198.56;;;;
2021/12/14 05:17:53;;;;;;;5.15;2.2;;;;;;;1.45;100;96198.56;;;;
2021/12/14 05:18:54;;;;;;;5.15;2.2;;;;;;;1.45;100;96198.56;;;;
2021/12/14 05:19:58;;;;;;;5.15;2.2;;;;;;;1.45;100;96198.56;;;;
2021/12/14 05:21:00;;;;;;;5.15;2.2;;;;;;;1.45;100;96198.56;;;;
2021/12/14 05:22:01;;;;;;;5.15;2.2;;;;;;;1.45;100;96198.56;;;;
2021/12/14 05:23:06;;;;;;;5.15;2.2;;;;;;;1.45;100;96198.56;;;;
2021/12/14 05:24:07;;;;;;;11.65;2.5;;;;;;;1.23;100;96205.74;;;;
2021/12/14 05:25:11;;;;;;;11.65;2.5;;;;;;;1.23;100;96205.74;;;;
2021/12/14 05:26:18;;;;;;;11.65;2.5;;;;;;;1.23;100;96205.74;;;;
2021/12/14 05:27:19;;;;;;;11.65;2.5;;;;;;;1.23;100;96205.74;;;;
2021/12/14 05:28:26;;;;;;;11.65;2.5;;;;;;;1.23;100;96205.74;;;;
2021/12/14 05:29:26;;;;;;;11.65;2.5;;;;;;;1.23;100;96205.74;;;;
2021/12/14 05:30:28;;;;;;;11.65;2.5;;;;;;;1.23;100;96205.74;;;;
2021/12/14 05:31:32;;;;;;;11.65;2.5;;;;;;;1.23;100;96205.74;;;;
2021/12/14 05:32:33;;;;;;;11.65;2.5;;;;;;;1.23;100;96205.74;;;;
2021/12/14 05:33:35;;;;;;;11.65;2.5;;;;;;;1.23;100;96205.74;;;;
2021/12/14 05:34:37;;;;;;;11.65;2.5;;;;;;;1.23;100;96205.74;;;;
2021/12/14 05:35:39;;;;;;;5.4;2.1;;;;;;;0.96;100;96214.28;;;;
2021/12/14 05:36:43;;;;;;;5.4;2.1;;;;;;;0.96;100;96214.28;;;;
2021/12/14 05:37:48;;;;;;;5.4;2.1;;;;;;;0.96;100;96214.28;;;;
2021/12/14 05:38:55;;;;;;;5.4;2.1;;;;;;;0.96;100;96214.28;;;;
2021/12/14 05:40:00;;;;;;;5.4;2.1;;;;;;;0.96;100;96214.28;;;;
2021/12/14 05:41:10;;;;;;;5.4;2.1;;;;;;;0.96;100;96214.28;;;;
2021/12/14 05:43:16;;;;;;;5.4;2.1;;;;;;;0.96;100;96214.28;;;;
2021/12/14 05:44:19;;;;;;;5.4;2.1;;;;;;;0.96;100;96214.28;;;;
2021/12/14 05:45:26;;;;;;;5.4;2.1;;;;;;;0.96;100;96214.28;;;;
2021/12/14 05:46:26;;;;;;;3.6;2.35;;;;;;;0.73;100;96187;;;;
2021/12/14 05:47:27;;;;;;;3.6;2.35;;;;;;;0.73;100;96187;;;;
2021/12/14 05:48:29;;;;;;;3.6;2.35;;;;;;;0.73;100;96187;;;;
2021/12/14 05:49:32;;;;;;;3.6;2.35;;;;;;;0.73;100;96187;;;;
2021/12/14 05:50:35;;;;;;;3.6;2.35;;;;;;;0.73;100;96187;;;;
2021/12/14 05:51:40;;;;;;;3.6;2.35;;;;;;;0.73;100;96187;;;;
2021/12/14 05:52:41;;;;;;;3.6;2.35;;;;;;;0.73;100;96187;;;;
2021/12/14 05:53:42;;;;;;;3.6;2.35;;;;;;;0.73;100;96187;;;;
2021/12/14 05:54:45;;;;;;;3.6;2.35;;;;;;;0.73;100;96187;;;;
2021/12/14 05:55:47;;;;;;;3.6;2.35;;;;;;;0.73;100;96187;;;;
2021/12/14 05:56:49;;;;;;;3.6;2.35;;;;;;;0.73;100;96187;;;;
2021/12/14 05:57:53;;;;;;;4;2.55;;;;;;;0.53;100;96187.66;;;;
2021/12/14 05:58:56;;;;;;;4;2.55;;;;;;;0.53;100;96187.66;;;;
2021/12/14 06:00:00;;;;;;;4;2.55;;;;;;;0.53;100;96187.66;;;;
2021/12/14 06:01:00;;;;;;;4;2.55;;;;;;;0.53;100;96187.66;;;;
2021/12/14 06:02:06;;;;;;;4;2.55;;;;;;;0.53;100;96187.66;;;;
2021/12/14 06:03:08;;;;;;;4;2.55;;;;;;;0.53;100;96187.66;;;;
2021/12/14 06:04:14;;;;;;;4;2.55;;;;;;;0.53;100;96187.66;;;;
2021/12/14 06:05:16;;;;;;;4;2.55;;;;;;;0.53;100;96187.66;;;;
2021/12/14 06:06:19;;;;;;;4;2.55;;;;;;;0.53;100;96187.66;;;;
2021/12/14 06:07:25;;;;;;;4;2.55;;;;;;;0.53;100;96187.66;;;;
2021/12/14 06:08:25;;;;;;;4.3;2.5;;;;;;;0.3;100;96190.86;;;;
2021/12/14 06:09:29;;;;;;;4.3;2.5;;;;;;;0.3;100;96190.86;;;;
2021/12/14 06:10:34;;;;;;;4.3;2.5;;;;;;;0.3;100;96190.86;;;;
2021/12/14 06:11:34;;;;;;;4.3;2.5;;;;;;;0.3;100;96190.86;;;;
2021/12/14 06:12:36;;;;;;;4.3;2.5;;;;;;;0.3;100;96190.86;;;;
2021/12/14 06:13:39;;;;;;;4.3;2.5;;;;;;;0.3;100;96190.86;;;;
2021/12/14 06:14:51;;;;;;;4.3;2.5;;;;;;;0.3;100;96190.86;;;;
2021/12/14 06:15:52;;;;;;;4.3;2.5;;;;;;;0.3;100;96190.86;;;;
2021/12/14 06:16:53;;;;;;;4.3;2.5;;;;;;;0.3;100;96190.86;;;;
2021/12/14 06:17:59;;;;;;;4.3;2.5;;;;;;;0.3;100;96190.86;;;;
2021/12/14 06:18:59;;;;;;;2.55;1.9;;;;;;;0.05;100;96169.94;;;;
2021/12/14 06:20:19;;;;;;;2.55;1.9;;;;;;;0.05;100;96169.94;;;;
2021/12/14 06:21:24;;;;;;;2.55;1.9;;;;;;;0.05;100;96169.94;;;;
2021/12/14 06:22:30;;;;;;;2.55;1.9;;;;;;;0.05;100;96169.94;;;;
2021/12/14 06:23:31;;;;;;;2.55;1.9;;;;;;;0.05;100;96169.94;;;;
2021/12/14 06:24:31;;;;;;;2.55;1.9;;;;;;;0.05;100;96169.94;;;;
2021/12/14 06:25:34;;;;;;;2.55;1.9;;;;;;;0.05;100;96169.94;;;;
2021/12/14 06:26:35;;;;;;;2.55;1.9;;;;;;;0.05;100;96169.94;;;;
2021/12/14 06:27:38;;;;;;;2.55;1.9;;;;;;;0.05;100;96169.94;;;;
2021/12/14 06:28:39;;;;;;;2.55;1.9;;;;;;;0.05;100;96169.94;;;;
2021/12/14 06:29:40;;;;;;;2.55;1.9;;;;;;;0.05;100;96169.94;;;;
2021/12/14 06:30:46;;;;;;;3.45;2.2;;;;;;;-0.16;100;96155.18;;;;
2021/12/14 06:31:46;;;;;;;3.45;2.2;;;;;;;-0.16;100;96155.18;;;;
2021/12/14 06:32:47;;;;;;;3.45;2.2;;;;;;;-0.16;100;96155.18;;;;
2021/12/14 06:33:51;;;;;;;3.45;2.2;;;;;;;-0.16;100;96155.18;;;;
2021/12/14 06:34:52;;;;;;;3.45;2.2;;;;;;;-0.16;100;96155.18;;;;
2021/12/14 06:35:59;;;;;;;3.45;2.2;;;;;;;-0.16;100;96155.18;;;;
2021/12/14 06:37:03;;;;;;;3.45;2.2;;;;;;;-0.16;100;96155.18;;;;
2021/12/14 06:38:33;;;;;;;3.45;2.2;;;;;;;-0.16;100;96155.18;;;;
2021/12/14 06:39:35;;;;;;;3.45;2.2;;;;;;;-0.16;100;96155.18;;;;
2021/12/14 06:40:58;;;;;;;3.1;2.25;;;;;;;-0.27;100;96163.86;;;;
2021/12/14 06:42:08;;;;;;;3.1;2.25;;;;;;;-0.27;100;96163.86;;;;
2021/12/14 06:43:09;;;;;;;3.1;2.25;;;;;;;-0.27;100;96163.86;;;;
2021/12/14 06:44:12;;;;;;;3.1;2.25;;;;;;;-0.27;100;96163.86;;;;
2021/12/14 06:45:13;;;;;;;3.1;2.25;;;;;;;-0.27;100;96163.86;;;;
2021/12/14 06:46:18;;;;;;;3.1;2.25;;;;;;;-0.27;100;96163.86;;;;
2021/12/14 06:47:22;;;;;;;3.1;2.25;;;;;;;-0.27;100;96163.86;;;;
2021/12/14 06:48:29;;;;;;;3.1;2.25;;;;;;;-0.27;100;96163.86;;;;